createdAt,value
2022-08-24T00:01:36.664Z,20.27
2022-08-24T00:04:07.862Z,20.22
2022-08-24T00:06:40.505Z,20.44
2022-08-24T00:09:11.594Z,20.46
2022-08-24T00:11:43.426Z,20.44
2022-08-24T00:14:15.444Z,20.53
2022-08-24T00:16:47.119Z,20.58
2022-08-24T00:19:18.502Z,20.68
2022-08-24T00:21:49.939Z,20.44
2022-08-24T00:24:22.027Z,20.40
2022-08-24T00:26:54.422Z,20.44
2022-08-24T00:29:25.889Z,20.33
2022-08-24T00:31:57.335Z,20.11
2022-08-24T00:34:30.038Z,20.50
2022-08-24T00:37:01.313Z,20.59
2022-08-24T00:39:34.288Z,20.27
2022-08-24T00:42:05.752Z,20.27
2022-08-24T00:44:37.252Z,20.18
2022-08-24T00:47:11.429Z,20.13
2022-08-24T00:49:51.828Z,20.22
2022-08-24T00:52:29.885Z,20.26
2022-08-24T00:55:03.878Z,19.86
2022-08-24T00:57:38.296Z,20.08
2022-08-24T01:00:12.398Z,20.24
2022-08-24T01:02:46.728Z,19.99
2022-08-24T01:05:18.426Z,19.96
2022-08-24T01:07:51.094Z,19.72
2022-08-24T01:10:28.438Z,19.94
2022-08-24T01:13:02.643Z,19.82
2022-08-24T01:15:39.159Z,19.98
2022-08-24T01:18:20.738Z,19.99
2022-08-24T01:20:54.659Z,19.93
2022-08-24T01:23:36.515Z,19.96
2022-08-24T01:26:06.756Z,19.90
2022-08-24T01:28:41.178Z,20.14
2022-08-24T01:31:12.873Z,20.11
2022-08-24T01:33:44.295Z,19.96
2022-08-24T01:36:28.261Z,20.18
2022-08-24T01:38:59.588Z,20.12
2022-08-24T01:41:31.021Z,19.99
2022-08-24T01:44:02.751Z,19.91
2022-08-24T01:46:34.020Z,19.93
2022-08-24T01:49:06.106Z,20.07
2022-08-24T01:51:37.269Z,19.97
2022-08-24T01:54:08.839Z,19.79
2022-08-24T01:56:40.167Z,19.72
2022-08-24T01:59:12.947Z,19.72
2022-08-24T02:01:47.023Z,19.68
2022-08-24T02:04:19.143Z,19.52
2022-08-24T02:06:50.163Z,19.58
2022-08-24T02:09:22.194Z,19.48
2022-08-24T02:11:55.910Z,19.37
2022-08-24T02:14:30.692Z,19.40
2022-08-24T02:17:00.592Z,19.35
2022-08-24T02:19:32.189Z,19.36
2022-08-24T02:22:06.446Z,19.39
2022-08-24T02:24:39.709Z,19.42
2022-08-24T02:27:10.906Z,19.53
2022-08-24T02:29:43.566Z,19.49
2022-08-24T02:32:15.456Z,19.66
2022-08-24T02:34:46.745Z,19.50
2022-08-24T02:37:18.168Z,19.70
2022-08-24T02:39:49.266Z,19.56
2022-08-24T02:42:23.166Z,19.36
2022-08-24T02:44:55.751Z,19.20
2022-08-24T02:47:37.971Z,19.22
2022-08-24T02:50:01.954Z,19.13
2022-08-24T02:52:37.393Z,18.96
2022-08-24T02:55:09.394Z,19.16
2022-08-24T02:57:40.672Z,19.14
2022-08-24T03:00:14.737Z,19.28
2022-08-24T03:02:46.144Z,19.15
2022-08-24T03:05:17.735Z,19.39
2022-08-24T03:07:49.061Z,19.31
2022-08-24T03:10:23.178Z,19.24
2022-08-24T03:12:58.790Z,19.18
2022-08-24T03:15:27.894Z,19.21
2022-08-24T03:17:59.089Z,19.18
2022-08-24T03:20:31.028Z,19.23
2022-08-24T03:23:02.585Z,19.04
2022-08-24T03:25:33.964Z,18.95
2022-08-24T03:28:08.655Z,18.87
2022-08-24T03:30:38.833Z,19.10
2022-08-24T03:33:12.498Z,19.20
2022-08-24T03:35:44.176Z,19.28
2022-08-24T03:38:15.576Z,19.29
2022-08-24T03:40:46.633Z,19.41
2022-08-24T03:43:31.192Z,19.37
2022-08-24T03:46:03.599Z,19.35
2022-08-24T03:48:35.184Z,18.95
2022-08-24T03:51:08.319Z,19.20
2022-08-24T03:53:39.823Z,19.32
2022-08-24T03:56:13.052Z,19.15
2022-08-24T03:58:44.311Z,19.13
2022-08-24T04:01:18.066Z,19.26
2022-08-24T04:03:50.739Z,19.36
2022-08-24T04:06:23.944Z,19.39
2022-08-24T04:08:55.357Z,19.50
2022-08-24T04:11:29.119Z,19.30
2022-08-24T04:14:01.387Z,19.19
2022-08-24T04:16:34.132Z,19.13
2022-08-24T04:19:05.771Z,19.19
2022-08-24T04:21:38.667Z,19.25
2022-08-24T04:24:11.588Z,19.11
2022-08-24T04:26:45.683Z,19.20
2022-08-24T04:29:18.108Z,19.42
2022-08-24T04:31:50.698Z,19.46
2022-08-24T04:34:21.840Z,19.34
2022-08-24T04:36:53.514Z,19.32
2022-08-24T04:39:24.924Z,19.38
2022-08-24T04:41:58.985Z,19.50
2022-08-24T04:44:30.748Z,19.31
2022-08-24T04:47:05.143Z,19.15
2022-08-24T04:49:37.374Z,19.14
2022-08-24T04:52:10.703Z,19.37
2022-08-24T04:54:43.169Z,19.19
2022-08-24T04:57:18.200Z,19.39
2022-08-24T04:59:48.896Z,19.48
2022-08-24T05:02:21.350Z,19.62
2022-08-24T05:04:52.544Z,19.77
2022-08-24T05:07:23.724Z,19.75
2022-08-24T05:09:56.379Z,19.62
2022-08-24T05:12:29.591Z,19.65
2022-08-24T05:15:00.999Z,19.55
2022-08-24T05:17:32.600Z,19.71
2022-08-24T05:20:03.949Z,19.61
2022-08-24T05:22:35.412Z,19.79
2022-08-24T05:25:07.787Z,19.68
2022-08-24T05:27:39.024Z,19.71
2022-08-24T05:30:11.592Z,19.87
2022-08-24T05:32:42.811Z,19.95
2022-08-24T05:35:14.561Z,19.98
2022-08-24T05:37:46.006Z,19.72
2022-08-24T05:40:19.742Z,19.83
2022-08-24T05:42:51.170Z,20.01
2022-08-24T05:45:22.872Z,20.23
2022-08-24T05:47:53.925Z,20.18
2022-08-24T05:50:25.108Z,20.19
2022-08-24T05:52:58.025Z,20.21
2022-08-24T05:55:30.746Z,20.13
2022-08-24T05:58:02.287Z,20.15
2022-08-24T06:00:35.204Z,20.12
2022-08-24T06:03:07.155Z,20.11
2022-08-24T06:05:42.241Z,20.13
2022-08-24T06:08:13.924Z,19.74
2022-08-24T06:10:49.595Z,19.84
2022-08-24T06:13:21.039Z,19.89
2022-08-24T06:16:11.194Z,19.98
2022-08-24T06:18:27.311Z,20.24
2022-08-24T06:20:58.614Z,20.34
2022-08-24T06:23:29.815Z,20.15
2022-08-24T06:26:16.869Z,19.87
2022-08-24T06:28:48.411Z,20.25
2022-08-24T06:31:20.796Z,20.39
2022-08-24T06:33:53.175Z,19.80
2022-08-24T06:36:24.854Z,20.13
2022-08-24T06:38:56.417Z,20.16
2022-08-24T06:41:28.694Z,19.96
2022-08-24T06:44:00.470Z,20.21
2022-08-24T06:46:33.009Z,20.44
2022-08-24T06:49:04.472Z,20.14
2022-08-24T06:51:36.156Z,20.21
2022-08-24T06:54:07.642Z,20.09
2022-08-24T06:56:40.079Z,20.22
2022-08-24T06:59:11.428Z,20.55
2022-08-24T07:01:43.902Z,20.75
2022-08-24T07:04:15.622Z,20.40
2022-08-24T07:06:47.125Z,20.38
2022-08-24T07:09:20.515Z,20.51
2022-08-24T07:11:53.720Z,20.65
2022-08-24T07:14:25.224Z,20.75
2022-08-24T07:16:57.213Z,20.79
2022-08-24T07:19:28.495Z,20.80
2022-08-24T07:22:00.401Z,20.83
2022-08-24T07:24:31.416Z,20.79
2022-08-24T07:27:02.695Z,20.96
2022-08-24T07:29:50.479Z,20.88
2022-08-24T07:32:08.603Z,20.88
2022-08-24T07:34:39.870Z,21.11
2022-08-24T07:37:11.129Z,20.97
2022-08-24T07:39:42.069Z,20.87
2022-08-24T07:42:19.053Z,20.79
2022-08-24T07:44:47.417Z,21.29
2022-08-24T07:47:39.453Z,21.41
2022-08-24T07:49:52.257Z,21.57
2022-08-24T07:52:23.316Z,21.47
2022-08-24T07:54:54.557Z,21.55
2022-08-24T07:57:26.042Z,21.51
2022-08-24T08:00:01.554Z,21.69
2022-08-24T08:02:32.758Z,21.94
2022-08-24T08:05:06.630Z,22.12
2022-08-24T08:07:37.720Z,22.20
2022-08-24T08:10:10.505Z,22.12
2022-08-24T08:12:42.065Z,22.44
2022-08-24T08:15:14.001Z,22.34
2022-08-24T08:17:45.045Z,22.33
2022-08-24T08:20:19.367Z,22.19
2022-08-24T08:23:02.782Z,22.59
2022-08-24T08:25:33.901Z,23.00
2022-08-24T08:28:18.468Z,23.04
2022-08-24T08:30:38.420Z,22.95
2022-08-24T08:33:10.036Z,22.80
2022-08-24T08:35:42.164Z,22.86
2022-08-24T08:38:13.804Z,22.74
2022-08-24T08:40:52.187Z,23.22
2022-08-24T08:43:41.555Z,23.24
2022-08-24T08:46:27.620Z,23.41
2022-08-24T08:49:04.642Z,23.30
2022-08-24T08:51:49.405Z,23.51
2022-08-24T08:54:32.023Z,23.81
2022-08-24T08:57:12.154Z,23.67
2022-08-24T09:00:15.791Z,23.84
2022-08-24T09:02:55.699Z,23.98
2022-08-24T09:05:44.569Z,23.81
2022-08-24T09:08:39.642Z,24.25
2022-08-24T09:11:18.564Z,24.47
2022-08-24T09:14:10.529Z,24.18
2022-08-24T09:16:56.472Z,24.41
2022-08-24T09:19:36.683Z,24.77
2022-08-24T09:22:19.702Z,24.79
2022-08-24T09:25:05.552Z,25.12
2022-08-24T09:28:01.260Z,24.74
2022-08-24T09:30:54.768Z,25.14
2022-08-24T09:33:31.835Z,25.37
2022-08-24T09:36:15.863Z,25.38
2022-08-24T09:38:56.176Z,25.70
2022-08-24T09:41:49.915Z,25.52
2022-08-24T09:44:45.726Z,25.48
2022-08-24T09:47:22.632Z,25.48
2022-08-24T09:50:08.171Z,25.42
2022-08-24T09:53:00.208Z,25.62
2022-08-24T09:55:42.825Z,26.00
2022-08-24T09:58:28.617Z,25.83
2022-08-24T10:01:12.248Z,25.89
2022-08-24T10:03:46.265Z,25.89
2022-08-24T10:06:23.072Z,26.03
2022-08-24T10:09:24.029Z,26.48
2022-08-24T10:12:09.875Z,26.11
2022-08-24T10:15:04.974Z,26.30
2022-08-24T10:17:48.795Z,26.05
2022-08-24T10:20:26.597Z,26.54
2022-08-24T10:23:08.092Z,26.39
2022-08-24T10:25:51.153Z,26.39
2022-08-24T10:28:37.022Z,26.92
2022-08-24T10:31:13.011Z,26.98
2022-08-24T10:33:59.774Z,26.27
2022-08-24T10:36:36.467Z,26.46
2022-08-24T10:39:32.580Z,26.69
2022-08-24T10:42:34.759Z,26.73
2022-08-24T10:45:15.114Z,27.16
2022-08-24T10:48:01.011Z,27.13
2022-08-24T10:50:47.802Z,26.96
2022-08-24T10:53:31.199Z,27.00
2022-08-24T10:56:11.518Z,27.20
2022-08-24T10:58:55.175Z,27.44
2022-08-24T11:01:32.300Z,27.56
2022-08-24T11:04:12.492Z,27.13
2022-08-24T11:06:46.568Z,27.13
2022-08-24T11:09:20.034Z,27.33
2022-08-24T11:11:52.753Z,27.30
2022-08-24T11:14:30.143Z,27.32
2022-08-24T11:17:16.017Z,27.36
2022-08-24T11:19:47.853Z,27.45
2022-08-24T11:22:33.806Z,27.79
2022-08-24T11:25:13.944Z,27.38
2022-08-24T11:27:53.898Z,27.35
2022-08-24T11:30:30.768Z,27.45
2022-08-24T11:33:05.854Z,27.31
2022-08-24T11:35:38.015Z,27.26
2022-08-24T11:38:26.485Z,26.99
2022-08-24T11:41:15.646Z,27.07
2022-08-24T11:43:58.663Z,26.88
2022-08-24T11:46:35.862Z,26.84
2022-08-24T11:49:24.912Z,26.59
2022-08-24T11:52:05.566Z,27.06
2022-08-24T11:54:42.894Z,27.21
2022-08-24T11:57:29.436Z,27.43
2022-08-24T12:00:11.158Z,27.64
2022-08-24T12:03:01.122Z,27.47
2022-08-24T12:05:55.957Z,27.36
2022-08-24T12:08:42.326Z,27.27
2022-08-24T12:11:37.350Z,27.07
2022-08-24T12:14:23.086Z,27.16
2022-08-24T12:16:56.964Z,27.39
2022-08-24T12:19:36.820Z,27.66
2022-08-24T12:22:10.402Z,27.72
2022-08-24T12:24:44.438Z,27.73
2022-08-24T12:27:30.235Z,27.52
2022-08-24T12:30:05.890Z,27.17
2022-08-24T12:32:46.058Z,27.49
2022-08-24T12:35:22.930Z,27.91
2022-08-24T12:38:05.885Z,28.04
2022-08-24T12:40:46.552Z,28.17
2022-08-24T12:43:23.747Z,27.69
2022-08-24T12:46:01.954Z,27.82
2022-08-24T12:48:44.854Z,27.71
2022-08-24T12:51:28.095Z,27.49
2022-08-24T12:54:08.066Z,27.65
2022-08-24T12:56:54.313Z,27.60
2022-08-24T12:59:28.895Z,27.47
2022-08-24T13:02:15.362Z,27.18
2022-08-24T13:04:55.636Z,27.03
2022-08-24T13:07:32.341Z,26.94
2022-08-24T13:10:09.137Z,27.21
2022-08-24T13:12:45.815Z,27.27
2022-08-24T13:15:30.090Z,27.24
2022-08-24T13:18:13.195Z,27.10
2022-08-24T13:20:55.076Z,27.00
2022-08-24T13:23:27.866Z,27.19
2022-08-24T13:26:05.198Z,26.81
2022-08-24T13:28:44.600Z,27.12
2022-08-24T13:31:37.946Z,26.98
2022-08-24T13:34:13.630Z,26.93
2022-08-24T13:37:06.500Z,26.89
2022-08-24T13:39:52.429Z,27.00
2022-08-24T13:42:38.475Z,27.06
2022-08-24T13:45:24.848Z,27.04
2022-08-24T13:48:04.742Z,26.92
2022-08-24T13:50:42.131Z,26.97
2022-08-24T13:53:21.656Z,27.42
2022-08-24T13:56:13.684Z,27.65
2022-08-24T13:59:10.080Z,27.41
2022-08-24T14:02:06.435Z,27.54
2022-08-24T14:04:57.998Z,27.20
2022-08-24T14:07:47.538Z,27.33
2022-08-24T14:10:42.536Z,27.59
2022-08-24T14:13:26.693Z,27.01
2022-08-24T14:16:14.538Z,27.46
2022-08-24T14:18:48.728Z,27.31
2022-08-24T14:21:22.801Z,27.17
2022-08-24T14:24:02.967Z,27.26
2022-08-24T14:26:41.319Z,27.42
2022-08-24T14:29:22.815Z,27.60
2022-08-24T14:32:12.061Z,27.50
2022-08-24T14:34:53.570Z,27.40
2022-08-24T14:37:27.712Z,27.51
2022-08-24T14:40:02.057Z,27.37
2022-08-24T14:42:41.951Z,27.49
2022-08-24T14:45:16.266Z,27.24
2022-08-24T14:48:01.525Z,27.31
2022-08-24T14:50:39.305Z,27.23
2022-08-24T14:53:13.152Z,27.44
2022-08-24T14:56:01.109Z,27.49
2022-08-24T14:58:40.882Z,27.30
2022-08-24T15:01:27.738Z,27.33
2022-08-24T15:04:04.496Z,27.36
2022-08-24T15:06:50.465Z,27.21
2022-08-24T15:09:37.505Z,27.29
2022-08-24T15:12:26.784Z,27.50
2022-08-24T15:15:12.662Z,27.07
2022-08-24T15:18:06.468Z,27.17
2022-08-24T15:20:51.812Z,27.31
2022-08-24T15:23:26.145Z,27.26
2022-08-24T15:26:00.067Z,27.13
2022-08-24T15:28:35.958Z,27.12
2022-08-24T15:31:12.943Z,27.18
2022-08-24T15:33:59.016Z,27.10
2022-08-24T15:36:33.601Z,27.31
2022-08-24T15:39:07.057Z,27.31
2022-08-24T15:41:42.483Z,27.23
2022-08-24T15:44:21.477Z,27.46
2022-08-24T15:46:55.616Z,27.22
2022-08-24T15:49:42.412Z,27.27
2022-08-24T15:52:28.433Z,26.97
2022-08-24T15:55:03.732Z,26.96
2022-08-24T15:57:42.053Z,27.03
2022-08-24T16:00:23.343Z,27.19
2022-08-24T16:02:54.605Z,26.86
2022-08-24T16:05:28.605Z,26.89
2022-08-24T16:08:09.922Z,26.82
2022-08-24T16:10:52.878Z,26.92
2022-08-24T16:13:27.152Z,26.98
2022-08-24T16:16:09.358Z,26.88
2022-08-24T16:18:53.227Z,27.00
2022-08-24T16:21:36.860Z,27.02
2022-08-24T16:24:17.334Z,26.92
2022-08-24T16:26:51.537Z,26.87
2022-08-24T16:29:41.923Z,26.76
2022-08-24T16:32:33.078Z,26.90
2022-08-24T16:35:10.967Z,26.89
2022-08-24T16:37:42.143Z,27.03
2022-08-24T16:40:14.766Z,26.93
2022-08-24T16:42:45.931Z,27.00
2022-08-24T16:45:22.085Z,26.87
2022-08-24T16:47:53.265Z,26.86
2022-08-24T16:50:27.446Z,26.79
2022-08-24T16:52:57.821Z,26.79
2022-08-24T16:55:30.768Z,26.81
2022-08-24T16:58:02.959Z,26.99
2022-08-24T17:00:34.543Z,26.97
2022-08-24T17:03:06.125Z,26.68
2022-08-24T17:05:37.331Z,26.78
2022-08-24T17:08:11.551Z,26.48
2022-08-24T17:10:44.455Z,26.81
2022-08-24T17:13:33.035Z,26.89
2022-08-24T17:15:53.717Z,26.82
2022-08-24T17:18:24.421Z,26.77
2022-08-24T17:20:57.026Z,26.82
2022-08-24T17:23:28.365Z,26.72
2022-08-24T17:25:59.646Z,26.43
2022-08-24T17:28:31.147Z,26.54
2022-08-24T17:31:02.297Z,26.57
2022-08-24T17:33:33.583Z,26.47
2022-08-24T17:36:07.296Z,26.43
2022-08-24T17:38:42.906Z,26.34
2022-08-24T17:41:18.490Z,26.19
2022-08-24T17:43:48.461Z,26.11
2022-08-24T17:46:21.551Z,26.03
2022-08-24T17:48:52.732Z,25.93
2022-08-24T17:51:23.707Z,25.84
2022-08-24T17:53:54.999Z,25.66
2022-08-24T17:56:27.882Z,25.76
2022-08-24T17:59:12.359Z,25.89
2022-08-24T18:01:43.553Z,25.77
2022-08-24T18:04:14.634Z,25.59
2022-08-24T18:06:46.245Z,25.49
2022-08-24T18:09:35.355Z,25.40
2022-08-24T18:12:10.335Z,25.32
2022-08-24T18:14:41.523Z,25.02
2022-08-24T18:17:21.105Z,24.89
2022-08-24T18:19:54.096Z,24.98
2022-08-24T18:22:25.215Z,24.94
2022-08-24T18:24:56.487Z,24.82
2022-08-24T18:27:30.800Z,24.61
2022-08-24T18:30:05.685Z,24.69
2022-08-24T18:32:39.999Z,24.58
2022-08-24T18:35:12.161Z,24.56
2022-08-24T18:37:43.121Z,24.45
2022-08-24T18:40:21.390Z,24.38
2022-08-24T18:42:51.648Z,24.30
2022-08-24T18:45:23.960Z,24.22
2022-08-24T18:47:55.432Z,24.25
2022-08-24T18:50:28.643Z,24.10
2022-08-24T18:53:00.544Z,24.10
2022-08-24T18:55:31.778Z,24.16
2022-08-24T18:58:02.874Z,24.12
2022-08-24T19:00:34.751Z,24.04
2022-08-24T19:03:08.742Z,24.00
2022-08-24T19:05:41.372Z,24.01
2022-08-24T19:08:14.766Z,23.85
2022-08-24T19:10:46.362Z,23.72
2022-08-24T19:13:19.831Z,23.53
2022-08-24T19:15:51.574Z,23.49
2022-08-24T19:18:24.387Z,23.52
2022-08-24T19:20:58.665Z,23.51
2022-08-24T19:23:38.071Z,23.49
2022-08-24T19:26:09.541Z,23.44
2022-08-24T19:28:42.253Z,23.37
2022-08-24T19:31:15.442Z,23.32
2022-08-24T19:33:50.034Z,23.17
2022-08-24T19:36:22.888Z,23.18
2022-08-24T19:38:54.183Z,23.10
2022-08-24T19:41:36.877Z,23.18
2022-08-24T19:44:05.072Z,23.15
2022-08-24T19:46:37.601Z,23.05
2022-08-24T19:49:08.820Z,23.06
2022-08-24T19:51:40.361Z,23.12
2022-08-24T19:54:13.752Z,23.12
2022-08-24T19:56:46.003Z,23.05
2022-08-24T19:59:24.188Z,22.99
2022-08-24T20:01:55.651Z,22.89
2022-08-24T20:04:28.024Z,22.85
2022-08-24T20:06:59.199Z,22.81
2022-08-24T20:09:32.085Z,22.81
2022-08-24T20:12:03.110Z,22.80
2022-08-24T20:14:37.462Z,22.79
2022-08-24T20:17:08.120Z,22.77
2022-08-24T20:19:41.679Z,22.85
2022-08-24T20:22:13.631Z,22.83
2022-08-24T20:24:45.545Z,22.75
2022-08-24T20:27:19.670Z,22.48
2022-08-24T20:29:51.255Z,22.55
2022-08-24T20:32:24.017Z,22.39
2022-08-24T20:34:56.726Z,22.46
2022-08-24T20:37:30.102Z,22.53
2022-08-24T20:40:03.761Z,22.55
2022-08-24T20:42:37.611Z,22.60
2022-08-24T20:45:10.921Z,22.45
2022-08-24T20:47:45.098Z,22.45
2022-08-24T20:50:19.217Z,22.42
2022-08-24T20:52:51.547Z,22.37
2022-08-24T20:55:22.877Z,22.37
2022-08-24T20:57:57.015Z,22.39
2022-08-24T21:00:31.543Z,22.31
2022-08-24T21:03:02.892Z,22.32
2022-08-24T21:05:34.794Z,22.35
2022-08-24T21:08:06.614Z,22.19
2022-08-24T21:10:38.124Z,22.31
2022-08-24T21:13:09.697Z,22.38
2022-08-24T21:15:41.983Z,22.20
2022-08-24T21:18:13.364Z,22.41
2022-08-24T21:20:59.897Z,22.61
2022-08-24T21:23:17.535Z,22.68
2022-08-24T21:25:49.098Z,22.70
2022-08-24T21:28:22.714Z,22.79
2022-08-24T21:30:54.153Z,22.69
2022-08-24T21:33:38.406Z,22.54
2022-08-24T21:36:10.289Z,22.56
2022-08-24T21:38:45.460Z,22.65
2022-08-24T21:41:16.815Z,22.61
2022-08-24T21:43:48.496Z,22.74
2022-08-24T21:46:19.968Z,22.71
2022-08-24T21:48:51.019Z,22.91
2022-08-24T21:51:23.508Z,22.86
2022-08-24T21:53:59.679Z,22.79
2022-08-24T21:56:33.769Z,22.76
2022-08-24T21:59:04.987Z,22.73
2022-08-24T22:01:36.525Z,22.77
2022-08-24T22:04:09.544Z,22.75
2022-08-24T22:06:41.134Z,22.70
2022-08-24T22:09:12.669Z,22.52
2022-08-24T22:11:44.546Z,22.69
2022-08-24T22:14:17.440Z,22.56
2022-08-24T22:16:48.567Z,22.72
2022-08-24T22:19:19.778Z,22.47
2022-08-24T22:21:51.191Z,22.16
2022-08-24T22:24:22.399Z,22.46
2022-08-24T22:26:53.573Z,22.44
2022-08-24T22:29:26.580Z,22.40
2022-08-24T22:31:57.812Z,22.32
2022-08-24T22:34:29.041Z,22.20
2022-08-24T22:37:02.081Z,22.38
2022-08-24T22:39:33.639Z,22.35
2022-08-24T22:42:05.133Z,22.29
2022-08-24T22:44:36.815Z,22.46
2022-08-24T22:47:13.139Z,22.50
2022-08-24T22:49:47.178Z,22.23
2022-08-24T22:52:19.119Z,22.05
2022-08-24T22:54:50.547Z,22.16
2022-08-24T22:57:21.616Z,22.05
2022-08-24T22:59:52.661Z,22.18
2022-08-24T23:02:24.239Z,22.18
2022-08-24T23:04:55.880Z,22.38
2022-08-24T23:07:27.061Z,22.40
2022-08-24T23:09:58.347Z,22.23
2022-08-24T23:12:29.858Z,21.99
2022-08-24T23:15:01.377Z,21.93
2022-08-24T23:17:32.389Z,22.08
2022-08-24T23:20:07.134Z,22.11
2022-08-24T23:22:40.893Z,22.13
2022-08-24T23:25:14.540Z,21.83
2022-08-24T23:27:49.871Z,22.11
2022-08-24T23:30:18.570Z,22.04
2022-08-24T23:32:49.838Z,22.22
2022-08-24T23:35:21.094Z,22.21
2022-08-24T23:37:52.165Z,22.23
2022-08-24T23:40:23.371Z,22.24
2022-08-24T23:42:54.391Z,22.16
2022-08-24T23:45:28.394Z,22.28
2022-08-24T23:47:58.998Z,22.16
2022-08-24T23:50:30.704Z,22.00
2022-08-24T23:53:02.226Z,21.97
2022-08-24T23:55:33.485Z,21.90
2022-08-24T23:58:04.946Z,22.10
